Time;durP1;ratioP1;P1;durP2;ratioP2;P2;SDS_P1;SDS_P2;PMS_P1;PMS_P2;Temp;Humidity;BMP_temperature;BMP_pressure;BME280_temperature;BME280_humidity;BME280_pressure;Samples;Min_cycle;Max_cycle;Signal;HPM_P1;HPM_P2
2022/02/04 00:02:06;;;;;;;23.83;16.33;;;7.70;99.90;;;;;;5083746;28;20442;-41
2022/02/04 00:06:16;;;;;;;22.57;16.80;;;7.50;99.90;;;;;;5086466;28;20790;-42
2022/02/04 00:09:00;;;;;;;21.13;16.07;;;7.60;99.90;;;;;;5086942;28;20515;-41
2022/02/04 00:22:45;;;;;;;24.17;16.07;;;7.70;99.90;;;;;;5050785;28;20760;-41
2022/02/04 00:25:22;;;;;;;20.43;15.53;;;7.60;99.90;;;;;;5075253;28;20445;-42
2022/02/04 00:27:49;;;;;;;24.23;17.20;;;7.80;99.90;;;;;;5080148;28;20423;-42
2022/02/04 00:30:22;;;;;;;23.67;16.07;;;7.70;99.90;;;;;;5086636;28;20876;-41
2022/02/04 00:32:50;;;;;;;21.50;15.67;;;7.50;99.90;;;;;;5087134;28;20422;-40
2022/02/04 00:38:05;;;;;;;19.20;15.40;;;7.50;99.90;;;;;;5087295;28;20426;-42
2022/02/04 00:40:36;;;;;;;21.80;15.70;;;7.70;99.90;;;;;;5079194;28;20441;-41
2022/02/04 00:43:05;;;;;;;23.30;17.70;;;7.70;99.90;;;;;;5082123;28;20506;-42
2022/02/04 00:45:43;;;;;;;25.93;17.67;;;7.50;99.90;;;;;;5086775;28;20430;-41
2022/02/04 00:48:31;;;;;;;21.90;15.57;;;7.50;99.90;;;;;;5085755;28;20462;-42
2022/02/04 00:51:25;;;;;;;23.30;15.77;;;7.50;99.90;;;;;;5086164;28;20442;-42
2022/02/04 00:53:56;;;;;;;23.87;16.97;;;7.40;99.90;;;;;;5086573;28;20825;-42
2022/02/04 01:26:13;;;;;;;24.53;17.43;;;7.50;99.90;;;;;;5079347;28;20544;-42
2022/02/04 01:28:43;;;;;;;21.00;15.30;;;7.60;99.90;;;;;;5089801;28;20454;-41
2022/02/04 01:31:12;;;;;;;22.90;16.57;;;7.90;99.90;;;;;;5089366;28;20422;-42
2022/02/04 01:33:37;;;;;;;23.50;16.83;;;7.70;99.90;;;;;;5090542;28;20450;-43
2022/02/04 01:36:04;;;;;;;24.50;17.60;;;7.90;99.90;;;;;;5090584;28;20975;-41
2022/02/04 01:38:30;;;;;;;20.53;15.43;;;7.70;99.90;;;;;;5090212;28;20587;-41
2022/02/04 01:40:57;;;;;;;22.40;16.47;;;7.80;99.90;;;;;;5082699;28;20464;-40
2022/02/04 01:43:23;;;;;;;21.93;16.07;;;7.70;99.90;;;;;;5088599;28;20410;-41
2022/02/04 01:45:56;;;;;;;21.93;16.90;;;7.70;99.90;;;;;;5090013;28;20480;-41
2022/02/04 01:48:22;;;;;;;23.63;16.90;;;7.60;99.90;;;;;;5089827;28;20433;-42
2022/02/04 01:50:49;;;;;;;24.70;16.13;;;7.70;99.90;;;;;;5089525;28;20414;-41
2022/02/04 01:53:18;;;;;;;22.17;16.23;;;7.70;99.90;;;;;;5090019;28;20184;-41
2022/02/04 01:55:45;;;;;;;21.47;16.10;;;7.50;99.90;;;;;;5082064;28;20447;-41
2022/02/04 01:58:11;;;;;;;24.70;17.83;;;7.70;99.90;;;;;;5086449;28;20499;-41
2022/02/04 02:00:38;;;;;;;22.00;15.20;;;7.80;99.90;;;;;;5089425;28;20877;-41
2022/02/04 02:03:05;;;;;;;24.13;17.37;;;7.60;99.90;;;;;;5090013;28;20944;-42
2022/02/04 02:05:31;;;;;;;24.07;16.43;;;7.70;99.90;;;;;;5090097;28;20522;-43
2022/02/04 02:08:08;;;;;;;20.07;15.20;;;7.60;99.90;;;;;;5089521;28;20434;-41
2022/02/04 02:10:34;;;;;;;21.00;15.30;;;7.70;99.90;;;;;;5084663;28;20498;-41
2022/02/04 02:15:45;;;;;;;20.07;15.73;;;7.80;99.90;;;;;;5089661;28;20512;-41
2022/02/04 02:38:58;;;;;;;20.37;16.00;;;7.70;99.90;;;;;;5089399;28;20509;-42
2022/02/04 02:59:11;;;;;;;18.63;14.50;;;7.60;99.90;;;;;;5083926;28;20426;-41
2022/02/04 03:01:44;;;;;;;18.97;14.97;;;7.80;99.90;;;;;;5088119;28;20426;-43
2022/02/04 03:04:13;;;;;;;17.50;13.40;;;7.60;99.90;;;;;;5087566;28;20491;-42
2022/02/04 03:06:39;;;;;;;16.80;14.00;;;7.70;99.90;;;;;;5088442;28;20414;-43
2022/02/04 03:09:05;;;;;;;16.07;12.63;;;7.70;99.90;;;;;;5088120;28;20816;-43
2022/02/04 03:11:31;;;;;;;17.40;13.20;;;7.70;99.90;;;;;;5078049;28;20608;-41
2022/02/04 03:13:56;;;;;;;13.83;12.10;;;7.70;99.90;;;;;;5085050;28;20226;-42
2022/02/04 03:16:23;;;;;;;15.10;12.67;;;7.80;99.90;;;;;;5088297;28;20280;-42
2022/02/04 03:18:51;;;;;;;13.77;11.07;;;7.80;99.90;;;;;;5088414;28;20564;-41
2022/02/04 03:21:31;;;;;;;17.80;12.07;;;7.80;99.90;;;;;;5086091;28;20825;-41
2022/02/04 03:24:02;;;;;;;13.93;10.40;;;7.80;99.90;;;;;;5088073;28;20529;-42
2022/02/04 03:26:35;;;;;;;13.07;10.23;;;7.50;99.90;;;;;;5080141;28;20505;-40
2022/02/04 03:29:02;;;;;;;11.97;10.67;;;7.50;99.90;;;;;;5082228;28;20512;-43
2022/02/04 03:31:36;;;;;;;12.80;9.47;;;7.50;99.90;;;;;;5085985;28;20508;-40
2022/02/04 03:34:03;;;;;;;11.83;9.70;;;7.60;99.90;;;;;;5087814;28;20454;-42
2022/02/04 03:36:30;;;;;;;13.23;10.20;;;7.50;99.90;;;;;;5087808;28;20498;-41
2022/02/04 03:38:55;;;;;;;11.70;8.90;;;7.70;99.90;;;;;;5087111;28;20426;-41
2022/02/04 03:41:21;;;;;;;14.23;9.90;;;7.70;99.90;;;;;;5080638;28;20431;-41
2022/02/04 03:43:47;;;;;;;12.23;9.17;;;7.90;99.90;;;;;;5081608;28;20179;-41
2022/02/04 03:46:12;;;;;;;14.10;10.40;;;7.80;99.90;;;;;;5087795;28;20671;-41
2022/02/04 03:48:38;;;;;;;11.13;9.60;;;7.80;99.90;;;;;;5087467;28;20309;-45
2022/02/04 03:51:04;;;;;;;13.77;10.77;;;7.70;99.90;;;;;;5087492;28;20269;-42
2022/02/04 03:53:30;;;;;;;14.33;9.70;;;7.80;99.90;;;;;;5087848;28;20188;-41
2022/02/04 03:55:56;;;;;;;11.63;9.70;;;7.90;99.90;;;;;;5084584;28;20199;-41
2022/02/04 03:58:21;;;;;;;11.13;9.10;;;7.90;99.90;;;;;;5079834;28;20426;-44
2022/02/04 04:00:47;;;;;;;12.10;9.87;;;8.00;99.90;;;;;;5086977;28;20693;-42
2022/02/04 04:03:13;;;;;;;11.63;9.10;;;7.90;99.90;;;;;;5087250;28;20928;-41
2022/02/04 04:05:45;;;;;;;11.97;8.97;;;8.00;99.90;;;;;;5087909;28;20414;-41
2022/02/04 04:08:11;;;;;;;11.70;9.17;;;7.90;99.90;;;;;;5087586;28;20872;-40
2022/02/04 04:10:40;;;;;;;11.00;8.70;;;7.90;99.90;;;;;;5086883;28;20544;-43
2022/02/04 04:13:06;;;;;;;10.27;8.90;;;8.00;99.90;;;;;;5077119;28;20430;-41
2022/02/04 04:15:33;;;;;;;10.33;8.60;;;7.80;99.90;;;;;;5087310;28;20470;-41
2022/02/04 04:17:58;;;;;;;12.67;9.27;;;7.70;99.90;;;;;;5086916;28;20450;-42
2022/02/04 04:20:26;;;;;;;10.57;8.73;;;7.70;99.90;;;;;;5086800;28;20598;-43
2022/02/04 04:22:53;;;;;;;11.13;9.10;;;7.80;99.90;;;;;;5086065;28;20203;-40
2022/02/04 04:25:19;;;;;;;11.77;9.47;;;7.70;99.90;;;;;;5087412;28;20434;-41
2022/02/04 04:27:46;;;;;;;9.87;8.43;;;7.60;99.90;;;;;;5078967;28;21026;-41
2022/02/04 04:30:14;;;;;;;10.83;8.10;;;7.70;99.90;;;;;;5086238;28;20462;-41
2022/02/04 04:32:41;;;;;;;9.00;7.80;;;8.00;99.90;;;;;;5087770;28;20770;-43
2022/02/04 04:35:11;;;;;;;9.77;8.17;;;7.80;99.90;;;;;;5086987;28;20507;-40
2022/02/04 04:38:07;;;;;;;11.03;8.27;;;7.70;99.90;;;;;;5087428;28;20422;-41
2022/02/04 05:29:12;;;;;;;10.80;8.37;;;7.70;99.90;;;;;;5082535;28;20465;-42
2022/02/04 05:31:37;;;;;;;8.70;6.37;;;7.50;99.90;;;;;;5089470;28;20429;-43
2022/02/04 05:34:03;;;;;;;9.63;7.33;;;7.60;99.90;;;;;;5090477;28;20422;-44
2022/02/04 05:36:30;;;;;;;8.90;7.23;;;7.60;99.90;;;;;;5090633;28;20195;-40
2022/02/04 05:38:55;;;;;;;10.13;7.13;;;7.80;99.90;;;;;;5090351;28;20426;-41
2022/02/04 05:41:29;;;;;;;7.80;6.80;;;7.80;99.90;;;;;;5088612;28;20425;-43
2022/02/04 05:43:58;;;;;;;8.63;6.80;;;7.70;99.90;;;;;;5086435;28;20189;-44
2022/02/04 05:46:34;;;;;;;10.30;6.83;;;7.70;99.90;;;;;;5090017;28;20520;-41
2022/02/04 05:49:02;;;;;;;8.37;6.40;;;7.70;99.90;;;;;;5090202;28;20491;-42
2022/02/04 05:56:37;;;;;;;8.17;6.40;;;7.70;99.90;;;;;;5085099;28;20193;-41
2022/02/04 05:59:34;;;;;;;8.80;5.77;;;8.00;99.90;;;;;;5076842;28;20430;-41
2022/02/04 06:08:00;;;;;;;8.83;5.93;;;7.90;99.90;;;;;;5031635;28;20577;-41
2022/02/04 06:10:45;;;;;;;6.77;5.27;;;7.80;99.90;;;;;;5088490;28;20498;-43
2022/02/04 06:24:05;;;;;;;8.40;5.70;;;7.80;99.90;;;;;;5089264;28;20784;-41
2022/02/04 06:26:31;;;;;;;8.13;5.70;;;7.80;99.90;;;;;;5089679;28;20829;-42
2022/02/04 06:28:57;;;;;;;7.80;5.60;;;7.80;99.90;;;;;;5079068;28;20458;-42
2022/02/04 06:31:23;;;;;;;6.57;5.50;;;8.00;99.90;;;;;;5088770;28;20786;-44
2022/02/04 06:33:49;;;;;;;5.60;5.00;;;7.90;99.90;;;;;;5089317;28;20462;-41
2022/02/04 06:36:15;;;;;;;6.43;5.80;;;7.90;99.90;;;;;;5089433;28;20910;-42
2022/02/04 06:38:41;;;;;;;6.53;5.83;;;7.70;99.90;;;;;;5089040;28;20915;-44
2022/02/04 06:41:06;;;;;;;9.13;5.60;;;7.80;99.90;;;;;;5088930;28;20173;-43
2022/02/04 06:43:32;;;;;;;8.60;5.27;;;7.80;99.90;;;;;;5083083;28;20434;-43
2022/02/04 06:45:58;;;;;;;6.47;5.17;;;7.80;99.90;;;;;;5088683;28;20564;-42
2022/02/04 06:48:24;;;;;;;6.13;5.50;;;7.90;99.90;;;;;;5088406;28;20207;-42
2022/02/04 06:50:50;;;;;;;7.27;4.97;;;7.90;99.90;;;;;;5088089;28;20513;-41
2022/02/04 06:53:16;;;;;;;6.77;5.80;;;7.90;99.90;;;;;;5088756;28;20430;-42
2022/02/04 06:55:42;;;;;;;6.30;4.80;;;7.80;99.90;;;;;;5088880;28;20286;-44
2022/02/04 06:58:09;;;;;;;6.63;4.80;;;7.80;99.90;;;;;;5081015;28;20253;-42
2022/02/04 07:00:34;;;;;;;6.10;4.83;;;7.90;99.90;;;;;;5086825;28;20483;-43
2022/02/04 07:03:00;;;;;;;5.17;4.50;;;7.90;99.90;;;;;;5081038;28;20446;-43
2022/02/04 07:05:26;;;;;;;5.83;5.23;;;7.90;99.90;;;;;;5088241;28;20788;-41
2022/02/04 07:08:06;;;;;;;7.07;5.03;;;8.10;99.90;;;;;;5085651;28;20654;-41
2022/02/04 07:10:51;;;;;;;6.30;4.90;;;7.90;99.90;;;;;;5087513;28;20200;-43
2022/02/04 07:13:23;;;;;;;4.77;4.00;;;7.90;99.90;;;;;;5079000;28;20480;-44
2022/02/04 07:20:59;;;;;;;5.67;4.07;;;8.10;99.90;;;;;;5074701;28;20224;-41
2022/02/04 07:23:25;;;;;;;6.93;4.20;;;7.80;99.90;;;;;;5087793;28;20732;-41
2022/02/04 07:25:50;;;;;;;4.67;4.20;;;7.90;99.90;;;;;;5088237;28;20188;-44
2022/02/04 07:28:17;;;;;;;6.13;4.67;;;8.00;99.90;;;;;;5076802;28;20181;-41
2022/02/04 07:30:43;;;;;;;6.40;4.43;;;8.00;99.90;;;;;;5080243;28;20204;-42
2022/02/04 07:33:17;;;;;;;5.57;4.43;;;8.00;99.90;;;;;;5085579;28;20460;-40
2022/02/04 07:41:18;;;;;;;3.90;3.50;;;7.90;99.90;;;;;;5084983;28;20440;-41
2022/02/04 07:43:43;;;;;;;4.23;3.80;;;8.00;99.90;;;;;;5079153;28;20438;-43
2022/02/04 07:46:13;;;;;;;4.33;3.83;;;7.90;99.90;;;;;;5086602;28;20430;-40
2022/02/04 07:48:40;;;;;;;5.63;4.37;;;8.00;99.90;;;;;;5087619;28;20180;-42
2022/02/04 07:51:06;;;;;;;4.63;4.00;;;8.00;99.90;;;;;;5087262;28;20430;-41
2022/02/04 07:53:34;;;;;;;5.87;4.10;;;7.90;99.90;;;;;;5087941;28;20839;-42
2022/02/04 07:56:02;;;;;;;5.13;4.40;;;8.00;99.90;;;;;;5087879;28;20944;-42
2022/02/04 07:58:28;;;;;;;4.80;4.00;;;8.00;99.90;;;;;;5082145;28;20447;-41
2022/02/04 08:00:54;;;;;;;4.20;3.80;;;8.30;99.90;;;;;;5086341;28;20698;-41
2022/02/04 08:05:48;;;;;;;6.30;3.83;;;8.10;99.90;;;;;;5086384;28;20517;-42
2022/02/04 08:10:50;;;;;;;5.60;4.00;;;7.90;99.90;;;;;;5086476;28;20553;-41
2022/02/04 08:24:25;;;;;;;4.00;3.50;;;8.20;99.90;;;;;;5080446;28;20836;-42
2022/02/04 08:27:38;;;;;;;4.20;3.50;;;8.20;99.90;;;;;;5087766;28;20453;-44
2022/02/04 08:51:45;;;;;;;4.90;3.53;;;8.20;99.90;;;;;;5086039;28;20433;-41
2022/02/04 08:59:36;;;;;;;4.73;4.20;;;8.20;99.90;;;;;;5075530;28;20446;-41
2022/02/04 09:02:08;;;;;;;4.07;3.37;;;8.20;99.90;;;;;;5086756;28;20384;-42
2022/02/04 09:04:40;;;;;;;5.20;4.00;;;8.20;99.90;;;;;;5087269;28;20704;-41
2022/02/04 09:07:09;;;;;;;5.40;3.97;;;8.20;99.90;;;;;;5085735;28;20449;-42
2022/02/04 09:16:51;;;;;;;4.73;4.23;;;8.20;99.90;;;;;;5086842;28;20428;-41
2022/02/04 09:22:59;;;;;;;5.70;4.77;;;8.40;99.90;;;;;;5086905;28;20426;-41
2022/02/04 09:25:25;;;;;;;5.47;4.30;;;8.40;99.90;;;;;;5086888;28;20578;-41
2022/02/04 09:27:51;;;;;;;4.53;4.03;;;8.40;99.90;;;;;;5085258;28;20446;-41
2022/02/04 09:30:18;;;;;;;4.93;4.13;;;8.60;99.90;;;;;;5079912;28;20816;-44
2022/02/04 09:32:44;;;;;;;4.20;3.70;;;8.50;99.90;;;;;;5087133;28;20431;-42
2022/02/04 09:35:13;;;;;;;8.00;4.90;;;8.40;99.90;;;;;;5086678;28;20556;-41
2022/02/04 09:37:41;;;;;;;5.00;4.50;;;8.40;99.90;;;;;;5089467;28;20422;-41
2022/02/04 09:40:08;;;;;;;5.43;4.73;;;8.30;99.90;;;;;;5089634;28;20508;-42
2022/02/04 09:42:34;;;;;;;4.80;4.30;;;8.30;99.90;;;;;;5090108;28;20562;-41
2022/02/04 09:45:00;;;;;;;6.33;4.30;;;8.30;99.90;;;;;;5078178;28;20939;-41
2022/02/04 09:47:33;;;;;;;5.20;4.60;;;8.30;99.90;;;;;;5089830;28;20441;-41
2022/02/04 09:50:01;;;;;;;6.50;5.80;;;8.20;99.90;;;;;;5089459;28;20224;-41
2022/02/04 10:19:26;;;;;;;7.07;5.70;;;7.80;99.90;;;;;;5089570;28;20430;-43
2022/02/04 10:21:59;;;;;;;7.13;5.23;;;7.80;99.90;;;;;;5089433;28;20180;-41
2022/02/04 10:24:27;;;;;;;6.13;5.10;;;8.00;99.90;;;;;;5089183;28;20827;-41
2022/02/04 10:27:12;;;;;;;5.70;4.63;;;8.00;99.90;;;;;;5089386;28;20426;-41
2022/02/04 10:29:39;;;;;;;5.80;5.20;;;8.10;99.90;;;;;;5079262;28;20560;-42
2022/02/04 10:32:06;;;;;;;4.53;4.03;;;8.10;99.90;;;;;;5089427;28;20444;-41
2022/02/04 10:34:33;;;;;;;5.33;4.70;;;8.20;99.90;;;;;;5089196;28;20814;-41
2022/02/04 10:37:06;;;;;;;4.57;4.07;;;8.20;99.90;;;;;;5089027;28;20932;-43
2022/02/04 10:47:42;;;;;;;4.27;3.70;;;8.30;99.90;;;;;;5088094;28;20418;-42
2022/02/04 10:50:30;;;;;;;6.37;4.50;;;8.40;99.90;;;;;;5075063;28;20462;-44
2022/02/04 11:04:17;;;;;;;3.50;3.20;;;8.70;99.90;;;;;;5088694;28;20521;-42
2022/02/04 11:09:45;;;;;;;3.67;3.37;;;8.70;99.90;;;;;;5075040;28;20822;-41
2022/02/04 11:32:28;;;;;;;3.93;3.53;;;8.40;99.90;;;;;;5083339;28;20481;-41
2022/02/04 11:35:44;;;;;;;2.90;2.60;;;8.60;99.90;;;;;;5084315;28;20432;-43
2022/02/04 11:55:09;;;;;;;5.67;3.23;;;8.80;99.90;;;;;;5085929;28;20434;-41
2022/02/04 11:57:37;;;;;;;2.77;2.57;;;8.90;99.90;;;;;;5087672;28;20509;-41
2022/02/04 12:00:09;;;;;;;3.10;2.80;;;8.60;99.90;;;;;;5079204;28;20830;-41
2022/02/04 12:02:36;;;;;;;2.60;2.40;;;8.80;99.90;;;;;;5086163;28;20886;-43
2022/02/04 12:05:25;;;;;;;3.53;2.53;;;8.70;99.90;;;;;;5087860;28;20422;-43
2022/02/04 12:08:15;;;;;;;2.50;2.27;;;8.60;99.90;;;;;;5086104;28;20775;-42
2022/02/04 12:10:48;;;;;;;2.80;1.80;;;8.80;99.90;;;;;;5086752;28;20552;-41
2022/02/04 12:13:17;;;;;;;1.50;1.40;;;8.50;99.90;;;;;;5087785;28;20936;-42
2022/02/04 12:16:06;;;;;;;2.83;1.60;;;8.70;99.90;;;;;;5076485;28;20430;-40
2022/02/04 12:18:37;;;;;;;1.60;1.23;;;8.40;99.90;;;;;;5086084;28;20419;-43
2022/02/04 12:21:04;;;;;;;1.93;1.20;;;8.50;99.90;;;;;;5085760;28;20429;-41
2022/02/04 12:23:31;;;;;;;0.67;0.63;;;8.40;99.90;;;;;;5087081;28;21027;-41
2022/02/04 12:26:08;;;;;;;1.13;1.03;;;8.40;99.90;;;;;;5087687;28;20423;-43
2022/02/04 12:29:12;;;;;;;1.13;1.00;;;8.60;99.90;;;;;;5087252;28;20422;-41
2022/02/04 12:31:42;;;;;;;1.13;1.03;;;8.50;99.90;;;;;;5080448;28;20464;-41
2022/02/04 12:34:19;;;;;;;1.57;1.30;;;8.60;99.90;;;;;;5087087;28;20456;-41
2022/02/04 12:36:55;;;;;;;1.93;1.10;;;8.60;99.90;;;;;;5087315;28;20414;-44
2022/02/04 12:39:23;;;;;;;1.63;0.90;;;8.60;99.90;;;;;;5087172;28;20417;-41
2022/02/04 12:41:51;;;;;;;1.27;1.17;;;8.80;99.90;;;;;;5086646;28;20426;-42
2022/02/04 12:44:19;;;;;;;1.60;1.40;;;8.70;99.90;;;;;;5084504;28;20430;-41
2022/02/04 12:46:49;;;;;;;1.63;1.00;;;8.50;99.90;;;;;;5079777;28;20452;-41
2022/02/04 12:49:20;;;;;;;1.60;1.40;;;8.70;99.90;;;;;;5086883;28;20462;-41
2022/02/04 12:51:53;;;;;;;1.40;1.30;;;8.50;99.90;;;;;;5073264;28;20411;-45
2022/02/04 12:54:29;;;;;;;1.43;1.23;;;8.70;99.90;;;;;;5087273;28;20418;-41
2022/02/04 12:57:28;;;;;;;1.50;1.40;;;8.40;99.90;;;;;;5087069;28;20803;-42
2022/02/04 13:10:07;;;;;;;3.00;1.57;;;8.60;99.90;;;;;;5086535;28;20984;-40
2022/02/04 13:12:50;;;;;;;2.30;1.73;;;8.50;99.90;;;;;;5091378;28;20446;-41
2022/02/04 13:15:17;;;;;;;1.70;1.60;;;8.40;99.90;;;;;;5080938;28;20437;-41
2022/02/04 13:17:44;;;;;;;2.43;1.90;;;8.50;99.90;;;;;;5081362;28;20567;-40
2022/02/04 13:20:11;;;;;;;1.63;1.50;;;8.50;99.90;;;;;;5089828;28;20430;-41
2022/02/04 13:22:38;;;;;;;2.50;1.90;;;8.60;99.90;;;;;;5090215;28;20568;-41
2022/02/04 13:25:13;;;;;;;2.03;1.77;;;8.70;99.90;;;;;;5088815;28;20432;-41
2022/02/04 13:28:17;;;;;;;1.97;1.87;;;8.70;99.90;;;;;;5090544;28;20426;-41
2022/02/04 13:31:03;;;;;;;2.50;1.90;;;8.70;99.90;;;;;;5079581;28;20461;-42
2022/02/04 13:33:29;;;;;;;2.00;1.70;;;8.70;99.90;;;;;;5087970;28;20833;-40
2022/02/04 13:36:01;;;;;;;2.80;2.17;;;8.70;99.90;;;;;;5089888;28;20434;-43
2022/02/04 13:38:38;;;;;;;3.30;2.50;;;8.60;99.90;;;;;;5087838;28;20685;-42
2022/02/04 13:41:14;;;;;;;3.00;2.70;;;8.70;99.90;;;;;;5088417;28;20458;-41
2022/02/04 13:43:54;;;;;;;2.90;2.23;;;8.60;99.90;;;;;;5089779;28;20441;-41
2022/02/04 13:46:32;;;;;;;2.70;2.50;;;8.60;99.90;;;;;;5078539;28;20431;-46
2022/02/04 13:49:15;;;;;;;2.83;2.53;;;8.50;99.90;;;;;;5089307;28;20863;-41
2022/02/04 13:52:04;;;;;;;4.13;2.53;;;8.70;99.90;;;;;;5074956;28;20788;-40
2022/02/04 13:59:55;;;;;;;3.30;3.00;;;8.70;99.90;;;;;;5087330;28;20430;-41
2022/02/04 14:02:26;;;;;;;2.90;2.57;;;8.80;99.90;;;;;;5082502;28;20418;-42
2022/02/04 14:04:56;;;;;;;2.47;2.27;;;8.80;99.90;;;;;;5087958;28;20429;-41
2022/02/04 14:07:33;;;;;;;4.13;2.30;;;8.90;99.90;;;;;;5085556;28;20839;-40
2022/02/04 14:10:07;;;;;;;2.80;2.50;;;8.80;99.90;;;;;;5084012;28;20465;-40
2022/02/04 14:12:33;;;;;;;3.17;2.70;;;8.80;99.90;;;;;;5088147;28;20422;-40
2022/02/04 14:15:03;;;;;;;2.83;2.40;;;8.90;99.90;;;;;;5086082;28;20826;-40
2022/02/04 14:17:29;;;;;;;3.93;2.40;;;9.00;99.90;;;;;;5083245;28;20257;-41
2022/02/04 14:19:55;;;;;;;3.07;2.40;;;8.90;99.90;;;;;;5088452;28;20430;-41
2022/02/04 14:22:21;;;;;;;2.80;2.40;;;9.00;99.90;;;;;;5087795;28;20426;-40
2022/02/04 14:24:48;;;;;;;2.87;2.00;;;9.10;99.90;;;;;;5089099;28;20840;-41
2022/02/04 14:27:14;;;;;;;4.70;2.40;;;9.00;99.90;;;;;;5088796;28;20793;-42
2022/02/04 14:29:51;;;;;;;2.93;2.20;;;9.00;99.90;;;;;;5086864;28;21398;-41
2022/02/04 14:32:27;;;;;;;2.03;1.83;;;9.00;99.90;;;;;;5076765;28;20203;-41
2022/02/04 14:49:11;;;;;;;2.97;2.10;;;8.90;99.90;;;;;;5046057;28;20426;-41
2022/02/04 14:51:42;;;;;;;3.10;2.17;;;9.00;99.90;;;;;;5088047;28;20807;-40
2022/02/04 15:01:56;;;;;;;3.73;2.23;;;8.80;99.90;;;;;;5080139;28;21039;-40
2022/02/04 15:04:44;;;;;;;6.00;2.20;;;8.90;99.90;;;;;;5087928;28;20422;-41
2022/02/04 15:07:11;;;;;;;4.53;2.17;;;8.90;99.90;;;;;;5086358;28;20480;-40
2022/02/04 15:09:40;;;;;;;2.97;1.60;;;8.90;99.90;;;;;;5087609;28;20541;-44
2022/02/04 15:12:06;;;;;;;4.27;2.00;;;8.60;99.90;;;;;;5087880;28;20450;-41
2022/02/04 15:14:32;;;;;;;3.20;1.90;;;8.60;99.90;;;;;;5088151;28;20846;-40
2022/02/04 15:16:58;;;;;;;3.17;1.67;;;8.60;99.90;;;;;;5078036;28;20521;-41
2022/02/04 15:19:23;;;;;;;3.53;1.57;;;8.80;99.90;;;;;;5088132;28;20270;-41
2022/02/04 15:21:51;;;;;;;2.83;1.73;;;8.70;99.90;;;;;;5086762;28;20192;-41
2022/02/04 15:24:17;;;;;;;1.90;1.20;;;8.50;99.90;;;;;;5088077;28;20571;-40
2022/02/04 15:26:43;;;;;;;1.93;1.50;;;8.70;99.90;;;;;;5083112;28;20431;-42
2022/02/04 15:29:15;;;;;;;3.20;1.73;;;8.40;99.90;;;;;;5085759;28;20211;-41
2022/02/04 15:31:44;;;;;;;3.53;1.63;;;8.60;99.90;;;;;;5080065;28;20208;-41
2022/02/04 15:34:11;;;;;;;2.60;1.57;;;8.70;99.90;;;;;;5084813;28;20422;-40
2022/02/04 15:36:44;;;;;;;2.50;1.67;;;8.50;99.90;;;;;;5083876;28;20533;-40
2022/02/04 15:39:25;;;;;;;3.30;1.40;;;8.40;99.90;;;;;;5084019;28;20426;-41
2022/02/04 15:41:54;;;;;;;2.60;1.67;;;8.10;99.90;;;;;;5076868;28;20471;-41
2022/02/04 15:47:17;;;;;;;2.13;1.70;;;8.30;99.90;;;;;;5072638;28;20546;-40
2022/02/04 15:57:56;;;;;;;4.60;1.90;;;8.20;99.90;;;;;;5056636;28;20512;-40
2022/02/04 16:03:13;;;;;;;3.10;2.13;;;7.90;99.90;;;;;;5072830;28;20947;-40
2022/02/04 16:05:37;;;;;;;3.70;1.93;;;8.10;99.90;;;;;;5071267;28;20795;-40
2022/02/04 16:08:03;;;;;;;5.43;1.80;;;7.90;99.90;;;;;;5086864;28;20791;-41
2022/02/04 16:10:48;;;;;;;3.53;2.30;;;7.90;99.90;;;;;;5085644;28;20462;-41
2022/02/04 16:13:27;;;;;;;4.23;2.50;;;7.90;99.90;;;;;;5082454;28;20426;-40
2022/02/04 16:15:58;;;;;;;2.40;1.43;;;7.80;99.90;;;;;;5078162;28;20776;-40
2022/02/04 16:18:29;;;;;;;1.67;1.40;;;7.70;99.90;;;;;;5076311;28;20447;-39
2022/02/04 16:21:09;;;;;;;3.70;1.60;;;7.90;99.90;;;;;;5079444;28;20436;-39
2022/02/04 16:23:53;;;;;;;2.80;1.93;;;7.80;99.90;;;;;;5086546;28;20991;-40
2022/02/04 16:29:03;;;;;;;1.60;1.50;;;7.70;99.90;;;;;;5084804;28;20943;-40
2022/02/04 16:31:29;;;;;;;3.37;1.43;;;7.80;99.90;;;;;;5077978;28;20470;-40
2022/02/04 16:33:55;;;;;;;8.43;1.83;;;7.70;99.90;;;;;;5079620;28;20192;-40
2022/02/04 16:36:22;;;;;;;3.73;1.97;;;7.80;99.90;;;;;;5084957;28;20187;-41
2022/02/04 16:38:53;;;;;;;2.47;1.83;;;7.80;99.90;;;;;;5086913;28;20195;-44
2022/02/04 16:41:27;;;;;;;3.83;2.00;;;7.90;99.90;;;;;;5086152;28;20456;-40
2022/02/04 16:43:52;;;;;;;2.30;2.10;;;7.70;99.90;;;;;;5086602;28;20433;-40
2022/02/04 16:46:18;;;;;;;2.10;1.80;;;7.90;99.90;;;;;;5085808;28;20510;-40
2022/02/04 16:48:44;;;;;;;1.97;1.77;;;7.70;99.90;;;;;;5085188;28;20193;-43
2022/02/04 16:51:10;;;;;;;1.77;1.67;;;7.60;99.90;;;;;;5089908;28;20230;-42
2022/02/04 16:53:36;;;;;;;2.60;1.77;;;7.60;99.90;;;;;;5090717;28;20196;-40
2022/02/04 16:56:03;;;;;;;2.90;2.00;;;7.70;99.90;;;;;;5090325;28;20446;-40
2022/02/04 16:58:30;;;;;;;3.37;3.00;;;7.80;99.90;;;;;;5089022;28;20608;-40
2022/02/04 17:00:56;;;;;;;2.43;2.23;;;7.90;99.90;;;;;;5086989;28;20456;-41
2022/02/04 17:03:22;;;;;;;1.60;1.50;;;7.70;99.90;;;;;;5081315;28;21002;-41
2022/02/04 17:08:21;;;;;;;2.60;1.63;;;7.10;99.90;;;;;;5090484;28;20426;-40
2022/02/04 17:10:54;;;;;;;2.13;1.40;;;6.90;99.90;;;;;;5089345;28;20823;-40
2022/02/04 17:13:23;;;;;;;2.23;1.80;;;7.00;99.90;;;;;;5089085;28;20517;-40
2022/02/04 17:15:49;;;;;;;2.63;1.90;;;6.90;99.90;;;;;;5090129;28;20451;-40
2022/02/04 17:18:15;;;;;;;1.83;1.73;;;6.80;99.90;;;;;;5080019;28;20442;-40
2022/02/04 17:20:42;;;;;;;2.17;1.97;;;6.40;99.90;;;;;;5088997;28;20837;-41
2022/02/04 17:23:10;;;;;;;1.70;1.60;;;6.10;99.90;;;;;;5090274;28;20430;-40
2022/02/04 17:25:38;;;;;;;1.97;1.87;;;5.90;99.90;;;;;;5089774;28;20871;-40
2022/02/04 17:28:04;;;;;;;2.23;1.83;;;6.00;99.90;;;;;;5089888;28;20418;-39
2022/02/04 17:30:31;;;;;;;2.50;2.30;;;6.10;99.90;;;;;;5089272;28;20473;-41
2022/02/04 17:32:56;;;;;;;2.07;1.93;;;5.90;99.90;;;;;;5079654;28;20433;-40
2022/02/04 17:35:25;;;;;;;3.90;2.60;;;6.20;99.90;;;;;;5089464;28;20430;-40
2022/02/04 17:37:54;;;;;;;3.40;3.10;;;6.10;99.90;;;;;;5089361;28;20176;-40
2022/02/04 17:40:20;;;;;;;4.50;4.10;;;6.10;99.90;;;;;;5089299;28;21047;-42
2022/02/04 17:42:47;;;;;;;4.50;3.90;;;6.00;99.90;;;;;;5089330;28;20513;-40
2022/02/04 17:45:17;;;;;;;3.70;3.40;;;6.00;99.90;;;;;;5089919;28;20189;-40
2022/02/04 17:47:50;;;;;;;5.13;4.63;;;5.90;99.90;;;;;;5079531;28;20537;-41
2022/02/04 17:50:22;;;;;;;6.30;4.73;;;5.90;99.90;;;;;;5088528;28;20510;-40
2022/02/04 17:52:58;;;;;;;5.80;4.47;;;6.10;99.90;;;;;;5085809;28;20435;-40
2022/02/04 17:55:31;;;;;;;4.57;4.17;;;5.70;99.90;;;;;;5089864;28;21273;-40
2022/02/04 17:58:10;;;;;;;4.30;3.90;;;5.70;99.90;;;;;;5087849;28;20546;-40
2022/02/04 18:08:21;;;;;;;3.70;3.30;;;5.80;99.90;;;;;;5089511;28;20424;-40
2022/02/04 18:10:47;;;;;;;4.10;3.70;;;5.60;99.90;;;;;;5088515;28;20466;-40
2022/02/04 18:13:14;;;;;;;4.60;3.93;;;5.60;99.90;;;;;;5088984;28;20935;-40
2022/02/04 18:15:42;;;;;;;4.50;4.07;;;5.60;99.90;;;;;;5089284;28;20793;-39
2022/02/04 18:18:13;;;;;;;4.43;4.03;;;5.70;99.90;;;;;;5074799;28;20439;-40
2022/02/04 18:20:39;;;;;;;4.20;3.80;;;5.70;99.90;;;;;;5087369;28;20423;-40
2022/02/04 18:23:06;;;;;;;4.10;3.70;;;5.70;99.90;;;;;;5089366;28;20453;-40
2022/02/04 18:25:31;;;;;;;4.97;4.50;;;5.70;99.90;;;;;;5088999;28;20462;-40
2022/02/04 18:27:59;;;;;;;4.40;4.00;;;5.90;99.90;;;;;;5088605;28;20473;-43
2022/02/04 18:30:25;;;;;;;5.17;4.30;;;5.70;99.90;;;;;;5088131;28;20265;-40
2022/02/04 18:32:51;;;;;;;6.20;5.00;;;5.70;99.90;;;;;;5077776;28;21024;-40
2022/02/04 18:35:18;;;;;;;5.23;4.73;;;5.80;99.90;;;;;;5079489;28;20439;-40
2022/02/04 18:37:52;;;;;;;5.03;4.53;;;5.60;99.90;;;;;;5086247;28;21061;-40
2022/02/04 18:45:53;;;;;;;5.17;4.67;;;5.60;99.90;;;;;;5046167;28;20452;-40
2022/02/04 18:48:22;;;;;;;4.53;4.17;;;5.70;99.90;;;;;;5077154;28;20468;-40
2022/02/04 18:51:17;;;;;;;8.73;4.03;;;5.60;99.90;;;;;;5083877;28;20450;-39
2022/02/04 18:53:41;;;;;;;7.10;4.93;;;5.40;99.90;;;;;;5087095;28;20430;-41
2022/02/04 18:58:39;;;;;;;6.80;4.60;;;5.70;99.90;;;;;;5081396;28;20479;-40
2022/02/04 19:01:06;;;;;;;6.53;5.07;;;5.60;99.90;;;;;;5087094;28;20418;-42
2022/02/04 19:03:38;;;;;;;7.50;4.30;;;5.70;99.90;;;;;;5085196;28;20758;-41
2022/02/04 19:06:21;;;;;;;4.70;4.30;;;5.60;99.90;;;;;;5087833;28;20426;-40
2022/02/04 19:09:06;;;;;;;5.40;4.13;;;5.60;99.90;;;;;;5072140;28;20438;-40
2022/02/04 19:11:40;;;;;;;6.50;4.87;;;5.70;99.90;;;;;;5086751;28;20426;-40
2022/02/04 19:14:17;;;;;;;6.20;5.27;;;5.80;99.90;;;;;;5087803;28;20768;-39
2022/02/04 19:19:23;;;;;;;6.50;5.60;;;5.50;99.90;;;;;;5080290;28;20501;-39
2022/02/04 19:21:59;;;;;;;8.00;5.73;;;5.80;99.90;;;;;;5081805;28;20487;-40
2022/02/04 19:24:29;;;;;;;8.70;5.63;;;5.50;99.90;;;;;;5085736;28;20520;-39
2022/02/04 19:26:55;;;;;;;5.47;4.83;;;5.60;99.90;;;;;;5085136;28;20438;-41
2022/02/04 19:29:23;;;;;;;7.40;5.70;;;5.70;99.90;;;;;;5084500;28;20519;-40
2022/02/04 19:31:52;;;;;;;6.00;5.43;;;5.60;99.90;;;;;;5082323;28;20192;-40
2022/02/04 19:34:20;;;;;;;8.03;5.20;;;5.70;99.90;;;;;;5079783;28;21134;-40